Disraeli, Canada
Current Conditions -  °F | °C
As of 7:00 AM on Friday 19 Dec 2014 (Local Time) from CYSC Reporting Station
Light Snow Light Snow  
Wind Chill: 11°   Ceiling: 1000
Heat Index: 21°   Visibility: 9mi
Dew Point: 19°   Wind: 9mph
Humidity: 93%   Direction: 300°WNW
Pressure: 29.93"   Gusts: NA
Location:  45.9°N, 71.35°W
Report Text: CYSC 191200Z AUTO 30008KT 9SM -SN OVC010 M06/M07 A2993 RMK SLP150
Loading
Personal Weather Stations






























Interactive Weather Map New forecast layout! Learn more

10-Day Weather Forecast

Advertisements
Track Severe Weather on mobile